createdAt,value
2023-02-07T00:01:56.734Z,-5.22
2023-02-07T00:05:09.477Z,-5.31
2023-02-07T00:08:21.849Z,-5.31
2023-02-07T00:11:35.818Z,-5.28
2023-02-07T00:14:49.451Z,-5.22
2023-02-07T00:18:02.128Z,-5.35
2023-02-07T00:21:16.486Z,-5.59
2023-02-07T00:24:29.141Z,-5.69
2023-02-07T00:27:41.511Z,-5.77
2023-02-07T00:31:04.501Z,-5.67
2023-02-07T00:34:16.962Z,-5.72
2023-02-07T00:37:29.585Z,-5.75
2023-02-07T00:40:42.044Z,-5.96
2023-02-07T00:43:55.121Z,-5.95
2023-02-07T00:47:08.420Z,-5.98
2023-02-07T00:50:22.203Z,-5.86
2023-02-07T00:53:34.642Z,-5.82
2023-02-07T00:56:47.732Z,-5.87
2023-02-07T01:00:00.133Z,-6.06
2023-02-07T01:03:12.764Z,-6.15
2023-02-07T01:06:25.140Z,-6.10
2023-02-07T01:09:38.852Z,-6.12
2023-02-07T01:12:52.147Z,-6.21
2023-02-07T01:16:05.233Z,-6.30
2023-02-07T01:19:17.728Z,-6.08
2023-02-07T01:22:30.378Z,-6.26
2023-02-07T01:25:44.211Z,-6.31
2023-02-07T01:28:56.902Z,-6.28
2023-02-07T01:32:10.275Z,-6.36
2023-02-07T01:35:23.000Z,-6.29
2023-02-07T01:38:35.358Z,-6.14
2023-02-07T01:41:48.061Z,-6.15
2023-02-07T01:45:06.028Z,-6.21
2023-02-07T01:48:24.388Z,-6.18
2023-02-07T01:51:36.887Z,-6.28
2023-02-07T01:54:51.312Z,-6.25
2023-02-07T01:58:04.531Z,-6.23
2023-02-07T02:01:21.216Z,-6.22
2023-02-07T02:04:33.880Z,-6.29
2023-02-07T02:07:46.374Z,-6.34
2023-02-07T02:11:17.734Z,-6.40
2023-02-07T02:14:42.731Z,-6.30
2023-02-07T02:18:20.637Z,-6.33
2023-02-07T02:21:52.022Z,-6.31
2023-02-07T02:25:22.752Z,-6.57
2023-02-07T02:28:53.404Z,-6.43
2023-02-07T02:32:29.585Z,-6.46
2023-02-07T02:35:49.600Z,-6.35
2023-02-07T02:39:09.694Z,-6.47
2023-02-07T02:42:34.902Z,-6.51
2023-02-07T02:45:53.589Z,-6.60
2023-02-07T02:49:06.969Z,-6.66
2023-02-07T02:52:19.382Z,-6.67
2023-02-07T02:55:56.563Z,-6.63
2023-02-07T02:59:37.820Z,-6.69
2023-02-07T03:03:09.262Z,-7.04
2023-02-07T03:06:24.707Z,-6.89
2023-02-07T03:09:52.950Z,-6.80
2023-02-07T03:13:24.518Z,-6.60
2023-02-07T03:16:51.074Z,-6.66
2023-02-07T03:20:12.693Z,-6.79
2023-02-07T03:23:25.301Z,-6.93
2023-02-07T03:26:38.492Z,-6.87
2023-02-07T03:29:57.727Z,-6.87
2023-02-07T03:33:11.902Z,-7.22
2023-02-07T03:36:31.532Z,-7.20
2023-02-07T03:39:43.908Z,-7.10
2023-02-07T03:43:35.090Z,-7.09
2023-02-07T03:46:49.257Z,-7.07
2023-02-07T03:50:01.936Z,-7.08
2023-02-07T03:53:14.244Z,-6.99
2023-02-07T03:56:26.873Z,-7.15
2023-02-07T03:59:39.279Z,-7.27
2023-02-07T04:02:51.953Z,-7.25
2023-02-07T04:06:04.897Z,-7.29
2023-02-07T04:09:17.226Z,-7.27
2023-02-07T04:12:32.968Z,-7.36
2023-02-07T04:15:45.331Z,-7.40
2023-02-07T04:18:58.030Z,-7.35
2023-02-07T04:22:11.169Z,-7.36
2023-02-07T04:25:23.842Z,-7.24
2023-02-07T04:28:36.972Z,-7.19
2023-02-07T04:31:49.663Z,-7.23
2023-02-07T04:35:02.043Z,-7.28
2023-02-07T04:38:14.716Z,-7.30
2023-02-07T04:41:27.052Z,-7.36
2023-02-07T04:44:39.708Z,-7.33
2023-02-07T04:47:52.038Z,-7.21
2023-02-07T04:51:05.800Z,-7.07
2023-02-07T04:54:18.133Z,-7.03
2023-02-07T04:57:30.758Z,-6.92
2023-02-07T05:00:43.152Z,-6.94
2023-02-07T05:03:55.777Z,-6.82
2023-02-07T05:07:08.125Z,-6.78
2023-02-07T05:10:20.716Z,-6.84
2023-02-07T05:13:33.085Z,-6.72
2023-02-07T05:16:45.774Z,-6.75
2023-02-07T05:19:58.196Z,-6.73
2023-02-07T05:23:10.916Z,-6.64
2023-02-07T05:26:23.250Z,-6.61
2023-02-07T05:29:37.127Z,-6.77
2023-02-07T05:33:07.828Z,-6.80
2023-02-07T05:36:20.503Z,-6.75
2023-02-07T05:39:32.905Z,-6.78
2023-02-07T05:42:45.523Z,-6.97
2023-02-07T05:45:57.895Z,-6.99
2023-02-07T05:49:10.528Z,-7.01
2023-02-07T05:52:23.091Z,-6.99
2023-02-07T05:55:35.861Z,-6.95
2023-02-07T05:58:48.327Z,-7.11
2023-02-07T06:02:03.817Z,-6.87
2023-02-07T06:05:17.900Z,-6.91
2023-02-07T06:08:30.228Z,-6.99
2023-02-07T06:11:42.853Z,-7.07
2023-02-07T06:14:55.188Z,-7.12
2023-02-07T06:18:07.838Z,-6.92
2023-02-07T06:21:20.215Z,-7.04
2023-02-07T06:24:32.919Z,-6.91
2023-02-07T06:27:45.271Z,-6.98
2023-02-07T06:30:58.137Z,-7.09
2023-02-07T06:34:10.569Z,-7.00
2023-02-07T06:37:23.258Z,-7.00
2023-02-07T06:40:35.570Z,-6.95
2023-02-07T06:43:48.261Z,-6.99
2023-02-07T06:47:01.142Z,-6.94
2023-02-07T06:50:13.858Z,-6.89
2023-02-07T06:53:26.305Z,-6.82
2023-02-07T06:56:39.026Z,-6.82
2023-02-07T06:59:51.443Z,-6.53
2023-02-07T07:03:04.549Z,-6.71
2023-02-07T07:06:16.970Z,-6.86
2023-02-07T07:09:29.653Z,-6.59
2023-02-07T07:12:42.029Z,-6.54
2023-02-07T07:15:54.694Z,-6.46
2023-02-07T07:19:07.060Z,-6.33
2023-02-07T07:22:21.188Z,-6.30
2023-02-07T07:25:33.810Z,-6.08
2023-02-07T07:28:46.507Z,-6.02
2023-02-07T07:31:58.873Z,-5.87
2023-02-07T07:35:11.586Z,-5.73
2023-02-07T07:38:24.310Z,-5.73
2023-02-07T07:41:36.915Z,-5.73
2023-02-07T07:44:49.279Z,-5.48
2023-02-07T07:48:02.070Z,-5.24
2023-02-07T07:51:14.488Z,-5.17
2023-02-07T07:54:27.228Z,-5.11
2023-02-07T07:57:40.299Z,-4.81
2023-02-07T08:00:53.028Z,-4.97
2023-02-07T08:04:05.932Z,-4.57
2023-02-07T08:07:18.352Z,-4.48
2023-02-07T08:10:31.009Z,-4.16
2023-02-07T08:13:43.470Z,-4.18
2023-02-07T08:16:56.129Z,-4.15
2023-02-07T08:20:09.226Z,-4.07
2023-02-07T08:23:22.146Z,-3.87
2023-02-07T08:26:34.477Z,-4.01
2023-02-07T08:29:47.106Z,-3.94
2023-02-07T08:32:59.475Z,-3.91
2023-02-07T08:36:12.700Z,-3.81
2023-02-07T08:39:25.072Z,-3.64
2023-02-07T08:42:37.757Z,-3.63
2023-02-07T08:45:50.253Z,-3.57
2023-02-07T08:49:02.919Z,-3.46
2023-02-07T08:52:15.283Z,-3.54
2023-02-07T08:55:27.945Z,-3.53
2023-02-07T08:58:41.099Z,-3.42
2023-02-07T09:01:53.884Z,-3.21
2023-02-07T09:05:06.800Z,-3.19
2023-02-07T09:08:20.166Z,-3.15
2023-02-07T09:11:32.620Z,-3.14
2023-02-07T09:14:45.361Z,-3.07
2023-02-07T09:17:58.174Z,-3.11
2023-02-07T09:21:10.862Z,-3.05
2023-02-07T09:24:23.746Z,-2.84
2023-02-07T09:27:36.426Z,-2.85
2023-02-07T09:30:49.441Z,-2.65
2023-02-07T09:34:04.970Z,-2.51
2023-02-07T09:37:17.466Z,-2.57
2023-02-07T09:40:30.268Z,-2.25
2023-02-07T09:44:04.353Z,-2.11
2023-02-07T09:47:19.594Z,-2.18
2023-02-07T09:50:35.118Z,-1.85
2023-02-07T09:53:54.491Z,-1.83
2023-02-07T09:57:38.347Z,-1.43
2023-02-07T10:00:57.237Z,-1.31
2023-02-07T10:04:19.167Z,-1.23
2023-02-07T10:07:32.348Z,-1.19
2023-02-07T10:11:04.701Z,-0.93
2023-02-07T10:14:26.322Z,-1.01
2023-02-07T10:18:02.158Z,-0.79
2023-02-07T10:21:39.318Z,-0.88
2023-02-07T10:25:13.060Z,-0.61
2023-02-07T10:28:32.456Z,-0.48
2023-02-07T10:31:48.117Z,-0.46
2023-02-07T10:35:03.304Z,-0.12
2023-02-07T10:38:42.213Z,0.06
2023-02-07T10:41:57.463Z,0.15
2023-02-07T10:45:12.929Z,0.21
2023-02-07T10:48:25.307Z,0.07
2023-02-07T10:51:39.672Z,0.48
2023-02-07T10:54:57.299Z,0.77
2023-02-07T10:58:25.299Z,0.91
2023-02-07T11:01:39.149Z,0.99
2023-02-07T11:04:52.016Z,0.88
2023-02-07T11:08:16.464Z,0.74
2023-02-07T11:11:33.111Z,0.94
2023-02-07T11:15:05.708Z,1.18
2023-02-07T11:18:37.707Z,1.23
2023-02-07T11:21:50.916Z,1.11
2023-02-07T11:25:05.175Z,1.10
2023-02-07T11:28:22.482Z,1.24
2023-02-07T11:31:36.784Z,1.43
2023-02-07T11:34:58.627Z,1.52
2023-02-07T11:38:16.284Z,1.47
2023-02-07T11:41:32.798Z,1.45
2023-02-07T11:44:46.131Z,1.63
2023-02-07T11:47:58.874Z,1.65
2023-02-07T11:51:15.828Z,1.71
2023-02-07T11:54:28.972Z,1.72
2023-02-07T11:57:41.852Z,1.61
2023-02-07T12:00:55.114Z,1.63
2023-02-07T12:04:25.556Z,1.35
2023-02-07T12:07:41.153Z,1.59
2023-02-07T12:11:04.609Z,1.76
2023-02-07T12:14:42.420Z,2.01
2023-02-07T12:18:02.580Z,1.84
2023-02-07T12:21:31.500Z,2.12
2023-02-07T12:24:49.100Z,2.04
2023-02-07T12:28:01.338Z,2.36
2023-02-07T12:31:26.174Z,2.19
2023-02-07T12:34:52.265Z,1.86
2023-02-07T12:38:14.292Z,1.61
2023-02-07T12:41:30.404Z,2.28
2023-02-07T12:44:47.845Z,2.59
2023-02-07T12:48:09.912Z,2.36
2023-02-07T12:51:41.583Z,2.46
2023-02-07T12:55:12.777Z,2.45
2023-02-07T12:58:42.011Z,2.83
2023-02-07T13:02:37.452Z,2.70
2023-02-07T13:06:04.936Z,2.74
2023-02-07T13:09:48.229Z,2.07
2023-02-07T13:13:23.397Z,2.38
2023-02-07T13:16:49.823Z,3.06
2023-02-07T13:20:10.027Z,2.93
2023-02-07T13:23:24.350Z,2.76
2023-02-07T13:26:37.101Z,2.71
2023-02-07T13:29:49.796Z,2.44
2023-02-07T13:33:35.842Z,2.85
2023-02-07T13:36:55.285Z,2.54
2023-02-07T13:40:14.740Z,3.00
2023-02-07T13:43:44.935Z,3.21
2023-02-07T13:47:13.776Z,3.35
2023-02-07T13:50:46.835Z,3.36
2023-02-07T13:54:18.998Z,3.40
2023-02-07T13:57:52.654Z,2.64
2023-02-07T14:01:10.031Z,3.05
2023-02-07T14:04:22.505Z,3.92
2023-02-07T14:07:36.096Z,4.63
2023-02-07T14:10:49.607Z,5.95
2023-02-07T14:14:26.781Z,6.17
2023-02-07T14:17:39.331Z,6.19
2023-02-07T14:21:02.282Z,5.65
2023-02-07T14:24:18.773Z,5.64
2023-02-07T14:27:41.613Z,4.77
2023-02-07T14:30:54.506Z,5.24
2023-02-07T14:34:11.819Z,4.81
2023-02-07T14:37:46.417Z,4.97
2023-02-07T14:41:10.749Z,4.64
2023-02-07T14:44:37.928Z,4.65
2023-02-07T14:47:50.742Z,3.68
2023-02-07T14:51:03.516Z,3.75
2023-02-07T14:54:29.630Z,3.88
2023-02-07T14:58:04.654Z,4.11
2023-02-07T15:01:18.044Z,3.92
2023-02-07T15:04:30.623Z,3.72
2023-02-07T15:07:47.194Z,3.72
2023-02-07T15:11:07.603Z,3.90
2023-02-07T15:14:28.115Z,3.51
2023-02-07T15:17:44.524Z,3.43
2023-02-07T15:20:58.553Z,4.25
2023-02-07T15:24:51.199Z,5.60
2023-02-07T15:28:26.683Z,6.48
2023-02-07T15:31:40.662Z,5.67
2023-02-07T15:34:54.709Z,4.84
2023-02-07T15:38:22.779Z,4.07
2023-02-07T15:41:35.118Z,3.09
2023-02-07T15:44:51.414Z,2.51
2023-02-07T15:48:09.767Z,2.21
2023-02-07T15:51:26.513Z,1.54
2023-02-07T15:54:40.875Z,1.10
2023-02-07T15:57:53.794Z,0.87
2023-02-07T16:01:07.494Z,0.49
2023-02-07T16:04:29.961Z,0.42
2023-02-07T16:07:42.615Z,0.18
2023-02-07T16:10:55.264Z,-0.01
2023-02-07T16:14:25.492Z,-0.18
2023-02-07T16:17:43.909Z,-0.40
2023-02-07T16:20:56.284Z,-0.38
2023-02-07T16:24:16.163Z,-0.51
2023-02-07T16:27:31.776Z,-0.64
2023-02-07T16:30:44.749Z,-0.76
2023-02-07T16:33:57.136Z,-0.87
2023-02-07T16:37:09.797Z,-0.91
2023-02-07T16:40:26.671Z,-0.99
2023-02-07T16:43:40.102Z,-1.12
2023-02-07T16:46:52.652Z,-1.26
2023-02-07T16:50:05.505Z,-1.27
2023-02-07T16:53:17.929Z,-1.37
2023-02-07T16:56:30.573Z,-1.49
2023-02-07T16:59:43.043Z,-1.72
2023-02-07T17:02:55.664Z,-1.84
2023-02-07T17:06:16.398Z,-1.85
2023-02-07T17:09:29.038Z,-1.90
2023-02-07T17:12:43.150Z,-1.88
2023-02-07T17:15:57.283Z,-1.89
2023-02-07T17:19:18.383Z,-1.91
2023-02-07T17:22:31.012Z,-1.94
2023-02-07T17:25:43.916Z,-1.89
2023-02-07T17:28:56.630Z,-1.91
2023-02-07T17:32:09.587Z,-1.96
2023-02-07T17:35:22.244Z,-2.07
2023-02-07T17:38:34.637Z,-2.16
2023-02-07T17:41:48.392Z,-2.17
2023-02-07T17:45:00.788Z,-2.24
2023-02-07T17:48:13.476Z,-2.30
2023-02-07T17:51:26.651Z,-2.42
2023-02-07T17:54:42.885Z,-2.48
2023-02-07T17:57:55.229Z,-2.65
2023-02-07T18:01:07.860Z,-2.59
2023-02-07T18:04:20.559Z,-2.60
2023-02-07T18:07:32.863Z,-2.50
2023-02-07T18:10:45.672Z,-2.58
2023-02-07T18:13:58.055Z,-2.60
2023-02-07T18:17:10.716Z,-2.59
2023-02-07T18:20:25.777Z,-2.71
2023-02-07T18:23:38.724Z,-2.77
2023-02-07T18:26:52.670Z,-2.80
2023-02-07T18:30:05.992Z,-2.84
2023-02-07T18:33:19.475Z,-2.88
2023-02-07T18:36:40.228Z,-2.89
2023-02-07T18:39:52.885Z,-2.89
2023-02-07T18:43:05.706Z,-2.92
2023-02-07T18:46:19.302Z,-2.97
2023-02-07T18:49:33.869Z,-3.17
2023-02-07T18:52:49.197Z,-3.08
2023-02-07T18:56:05.985Z,-3.22
2023-02-07T18:59:21.931Z,-3.20
2023-02-07T19:02:34.643Z,-3.24
2023-02-07T19:05:49.098Z,-3.19
2023-02-07T19:09:01.753Z,-3.19
2023-02-07T19:12:14.310Z,-3.19
2023-02-07T19:15:26.974Z,-3.22
2023-02-07T19:18:39.476Z,-3.20
2023-02-07T19:21:52.144Z,-3.32
2023-02-07T19:25:05.220Z,-3.29
2023-02-07T19:28:18.892Z,-3.39
2023-02-07T19:31:31.396Z,-3.39
2023-02-07T19:34:44.087Z,-3.39
2023-02-07T19:37:56.429Z,-3.35
2023-02-07T19:41:09.091Z,-3.35
2023-02-07T19:44:21.441Z,-3.33
2023-02-07T19:47:34.071Z,-3.22
2023-02-07T19:50:46.425Z,-3.39
2023-02-07T19:53:59.111Z,-3.44
2023-02-07T19:57:11.668Z,-3.56
2023-02-07T20:00:24.272Z,-3.75
2023-02-07T20:03:38.432Z,-3.75
2023-02-07T20:06:50.804Z,-3.83
2023-02-07T20:10:03.756Z,-3.81
2023-02-07T20:13:16.141Z,-3.90
2023-02-07T20:16:29.518Z,-3.86
2023-02-07T20:19:41.911Z,-3.93
2023-02-07T20:22:54.589Z,-4.04
2023-02-07T20:26:08.714Z,-4.08
2023-02-07T20:29:23.090Z,-4.12
2023-02-07T20:32:35.524Z,-4.17
2023-02-07T20:35:48.363Z,-4.17
2023-02-07T20:39:00.816Z,-4.15
2023-02-07T20:42:13.476Z,-4.22
2023-02-07T20:45:25.824Z,-4.26
2023-02-07T20:48:41.830Z,-4.25
2023-02-07T20:51:54.653Z,-4.34
2023-02-07T20:55:08.421Z,-4.35
2023-02-07T20:58:20.739Z,-4.44
2023-02-07T21:01:33.722Z,-4.41
2023-02-07T21:04:46.038Z,-4.43
2023-02-07T21:07:58.672Z,-4.44
2023-02-07T21:11:11.233Z,-4.47
2023-02-07T21:14:29.630Z,-4.42
2023-02-07T21:17:41.989Z,-4.50
2023-02-07T21:20:54.640Z,-4.49
2023-02-07T21:24:07.399Z,-4.47
2023-02-07T21:27:20.017Z,-4.51
2023-02-07T21:30:33.698Z,-4.67
2023-02-07T21:33:47.406Z,-4.76
2023-02-07T21:36:59.800Z,-4.87
2023-02-07T21:40:12.454Z,-4.82
2023-02-07T21:43:24.820Z,-4.79
2023-02-07T21:46:39.463Z,-4.74
2023-02-07T21:49:51.806Z,-4.94
2023-02-07T21:53:04.455Z,-4.85
2023-02-07T21:56:18.478Z,-4.74
2023-02-07T21:59:31.138Z,-4.93
2023-02-07T22:02:43.465Z,-4.88
2023-02-07T22:05:56.102Z,-4.98
2023-02-07T22:09:08.772Z,-4.98
2023-02-07T22:12:21.436Z,-4.96
2023-02-07T22:15:34.323Z,-4.95
2023-02-07T22:18:47.001Z,-5.01
2023-02-07T22:21:59.500Z,-4.95
2023-02-07T22:25:12.385Z,-4.95
2023-02-07T22:28:24.819Z,-4.99
2023-02-07T22:31:39.025Z,-4.97
2023-02-07T22:34:51.417Z,-4.90
2023-02-07T22:38:04.275Z,-4.77
2023-02-07T22:41:16.888Z,-4.82
2023-02-07T22:44:29.526Z,-4.83
2023-02-07T22:47:41.875Z,-4.94
2023-02-07T22:50:54.486Z,-5.03
2023-02-07T22:54:08.008Z,-5.08
2023-02-07T22:57:20.828Z,-5.03
2023-02-07T23:00:33.283Z,-5.07
2023-02-07T23:03:46.006Z,-5.06
2023-02-07T23:06:58.411Z,-5.10
2023-02-07T23:10:11.167Z,-5.19
2023-02-07T23:13:23.577Z,-5.22
2023-02-07T23:16:36.235Z,-5.14
2023-02-07T23:19:48.599Z,-5.10
2023-02-07T23:23:01.532Z,-4.97
2023-02-07T23:26:15.299Z,-4.64
2023-02-07T23:29:28.013Z,-4.49
2023-02-07T23:32:40.925Z,-4.20
2023-02-07T23:35:53.546Z,-4.04
2023-02-07T23:39:05.892Z,-3.94
2023-02-07T23:42:18.548Z,-3.83
2023-02-07T23:45:30.905Z,-3.67
2023-02-07T23:48:43.583Z,-3.37
2023-02-07T23:51:55.945Z,-3.45
2023-02-07T23:55:08.622Z,-3.47
2023-02-07T23:58:21.605Z,-3.46
